sensor_id;sensor_type;location;lat;lon;timestamp;P1;durP1;ratioP1;P2;durP2;ratioP2
75847;SDS011;65750;47.540;19.090;2023-03-20T00:01:09;5.10;;;2.70;;
75847;SDS011;65750;47.540;19.090;2023-03-20T00:03:38;5.85;;;3.03;;
75847;SDS011;65750;47.540;19.090;2023-03-20T00:06:09;5.00;;;2.83;;
75847;SDS011;65750;47.540;19.090;2023-03-20T00:08:42;5.15;;;3.20;;
75847;SDS011;65750;47.540;19.090;2023-03-20T00:11:19;4.95;;;3.00;;
75847;SDS011;65750;47.540;19.090;2023-03-20T00:13:54;5.53;;;3.15;;
75847;SDS011;65750;47.540;19.090;2023-03-20T00:16:22;4.62;;;3.15;;
75847;SDS011;65750;47.540;19.090;2023-03-20T00:18:49;5.17;;;3.17;;
75847;SDS011;65750;47.540;19.090;2023-03-20T00:21:17;5.22;;;3.22;;
75847;SDS011;65750;47.540;19.090;2023-03-20T00:23:45;4.75;;;2.95;;
75847;SDS011;65750;47.540;19.090;2023-03-20T00:26:12;6.35;;;3.50;;
75847;SDS011;65750;47.540;19.090;2023-03-20T00:28:42;5.10;;;2.92;;
75847;SDS011;65750;47.540;19.090;2023-03-20T00:31:14;5.47;;;3.20;;
75847;SDS011;65750;47.540;19.090;2023-03-20T00:33:46;5.57;;;2.97;;
75847;SDS011;65750;47.540;19.090;2023-03-20T00:36:14;5.55;;;3.10;;
75847;SDS011;65750;47.540;19.090;2023-03-20T00:38:41;6.30;;;3.62;;
75847;SDS011;65750;47.540;19.090;2023-03-20T00:41:18;5.55;;;3.20;;
75847;SDS011;65750;47.540;19.090;2023-03-20T00:43:50;5.47;;;3.57;;
75847;SDS011;65750;47.540;19.090;2023-03-20T00:46:18;4.78;;;2.85;;
75847;SDS011;65750;47.540;19.090;2023-03-20T00:48:45;5.40;;;3.17;;
75847;SDS011;65750;47.540;19.090;2023-03-20T00:51:13;5.15;;;3.33;;
75847;SDS011;65750;47.540;19.090;2023-03-20T00:53:40;6.07;;;3.50;;
75847;SDS011;65750;47.540;19.090;2023-03-20T00:56:11;6.20;;;3.73;;
75847;SDS011;65750;47.540;19.090;2023-03-20T00:58:58;4.60;;;2.85;;
75847;SDS011;65750;47.540;19.090;2023-03-20T01:01:26;5.37;;;3.17;;
75847;SDS011;65750;47.540;19.090;2023-03-20T01:03:54;6.18;;;3.40;;
75847;SDS011;65750;47.540;19.090;2023-03-20T01:06:21;5.15;;;3.03;;
75847;SDS011;65750;47.540;19.090;2023-03-20T01:08:49;5.07;;;3.10;;
75847;SDS011;65750;47.540;19.090;2023-03-20T01:11:18;4.90;;;3.30;;
75847;SDS011;65750;47.540;19.090;2023-03-20T01:13:48;5.45;;;2.97;;
75847;SDS011;65750;47.540;19.090;2023-03-20T01:16:19;4.82;;;3.12;;
75847;SDS011;65750;47.540;19.090;2023-03-20T01:18:48;5.28;;;3.33;;
75847;SDS011;65750;47.540;19.090;2023-03-20T01:21:16;6.27;;;3.23;;
75847;SDS011;65750;47.540;19.090;2023-03-20T01:23:43;4.95;;;3.20;;
75847;SDS011;65750;47.540;19.090;2023-03-20T01:26:17;5.03;;;3.22;;
75847;SDS011;65750;47.540;19.090;2023-03-20T01:28:47;5.03;;;3.20;;
75847;SDS011;65750;47.540;19.090;2023-03-20T01:31:15;5.82;;;3.20;;
75847;SDS011;65750;47.540;19.090;2023-03-20T01:33:44;5.20;;;3.23;;
75847;SDS011;65750;47.540;19.090;2023-03-20T01:36:12;5.55;;;3.40;;
75847;SDS011;65750;47.540;19.090;2023-03-20T01:38:40;4.37;;;2.83;;
75847;SDS011;65750;47.540;19.090;2023-03-20T01:41:11;5.37;;;2.97;;
75847;SDS011;65750;47.540;19.090;2023-03-20T01:43:38;5.18;;;3.00;;
75847;SDS011;65750;47.540;19.090;2023-03-20T01:46:13;6.00;;;3.20;;
75847;SDS011;65750;47.540;19.090;2023-03-20T01:48:58;5.40;;;3.25;;
75847;SDS011;65750;47.540;19.090;2023-03-20T01:51:28;5.20;;;3.22;;
75847;SDS011;65750;47.540;19.090;2023-03-20T01:53:58;4.87;;;2.90;;
75847;SDS011;65750;47.540;19.090;2023-03-20T01:56:30;5.30;;;3.20;;
75847;SDS011;65750;47.540;19.090;2023-03-20T01:59:01;5.30;;;3.43;;
75847;SDS011;65750;47.540;19.090;2023-03-20T02:01:30;5.37;;;3.15;;
75847;SDS011;65750;47.540;19.090;2023-03-20T02:04:02;4.80;;;3.03;;
75847;SDS011;65750;47.540;19.090;2023-03-20T02:06:30;6.75;;;3.22;;
75847;SDS011;65750;47.540;19.090;2023-03-20T02:08:59;6.03;;;3.58;;
75847;SDS011;65750;47.540;19.090;2023-03-20T02:11:27;4.77;;;2.73;;
75847;SDS011;65750;47.540;19.090;2023-03-20T02:13:56;5.43;;;3.40;;
75847;SDS011;65750;47.540;19.090;2023-03-20T02:16:25;5.05;;;3.15;;
75847;SDS011;65750;47.540;19.090;2023-03-20T02:18:53;5.25;;;3.15;;
75847;SDS011;65750;47.540;19.090;2023-03-20T02:21:39;4.57;;;2.85;;
75847;SDS011;65750;47.540;19.090;2023-03-20T02:24:27;5.80;;;3.53;;
75847;SDS011;65750;47.540;19.090;2023-03-20T02:27:12;5.97;;;3.30;;
75847;SDS011;65750;47.540;19.090;2023-03-20T02:29:47;5.00;;;3.25;;
75847;SDS011;65750;47.540;19.090;2023-03-20T02:35:44;5.30;;;3.28;;
75847;SDS011;65750;47.540;19.090;2023-03-20T02:41:36;6.40;;;3.40;;
75847;SDS011;65750;47.540;19.090;2023-03-20T02:44:07;4.78;;;2.90;;
75847;SDS011;65750;47.540;19.090;2023-03-20T02:46:41;5.30;;;3.12;;
75847;SDS011;65750;47.540;19.090;2023-03-20T02:49:17;4.97;;;2.95;;
75847;SDS011;65750;47.540;19.090;2023-03-20T02:51:53;5.17;;;3.03;;
75847;SDS011;65750;47.540;19.090;2023-03-20T02:54:27;4.97;;;2.90;;
75847;SDS011;65750;47.540;19.090;2023-03-20T02:56:58;5.10;;;3.28;;
75847;SDS011;65750;47.540;19.090;2023-03-20T02:59:29;5.90;;;3.17;;
75847;SDS011;65750;47.540;19.090;2023-03-20T03:02:01;5.03;;;2.90;;
75847;SDS011;65750;47.540;19.090;2023-03-20T03:04:32;4.97;;;3.10;;
75847;SDS011;65750;47.540;19.090;2023-03-20T03:07:01;5.12;;;3.10;;
75847;SDS011;65750;47.540;19.090;2023-03-20T03:09:34;5.68;;;3.30;;
75847;SDS011;65750;47.540;19.090;2023-03-20T03:12:05;5.70;;;3.25;;
75847;SDS011;65750;47.540;19.090;2023-03-20T03:14:35;4.82;;;3.03;;
75847;SDS011;65750;47.540;19.090;2023-03-20T03:17:05;4.17;;;2.90;;
75847;SDS011;65750;47.540;19.090;2023-03-20T03:19:34;5.57;;;3.25;;
75847;SDS011;65750;47.540;19.090;2023-03-20T03:22:02;4.60;;;3.08;;
75847;SDS011;65750;47.540;19.090;2023-03-20T03:24:30;4.90;;;3.05;;
75847;SDS011;65750;47.540;19.090;2023-03-20T03:27:02;5.45;;;3.10;;
75847;SDS011;65750;47.540;19.090;2023-03-20T03:29:33;5.40;;;3.40;;
75847;SDS011;65750;47.540;19.090;2023-03-20T03:32:05;5.20;;;3.25;;
75847;SDS011;65750;47.540;19.090;2023-03-20T03:34:33;4.03;;;2.70;;
75847;SDS011;65750;47.540;19.090;2023-03-20T03:37:03;5.68;;;3.37;;
75847;SDS011;65750;47.540;19.090;2023-03-20T03:39:36;5.40;;;3.17;;
75847;SDS011;65750;47.540;19.090;2023-03-20T03:42:06;4.80;;;2.93;;
75847;SDS011;65750;47.540;19.090;2023-03-20T03:44:38;6.18;;;3.15;;
75847;SDS011;65750;47.540;19.090;2023-03-20T03:47:09;4.60;;;2.90;;
75847;SDS011;65750;47.540;19.090;2023-03-20T03:49:40;5.00;;;2.75;;
75847;SDS011;65750;47.540;19.090;2023-03-20T03:52:10;4.70;;;2.83;;
75847;SDS011;65750;47.540;19.090;2023-03-20T03:54:43;5.63;;;3.07;;
75847;SDS011;65750;47.540;19.090;2023-03-20T03:57:15;4.60;;;3.08;;
75847;SDS011;65750;47.540;19.090;2023-03-20T03:59:45;5.35;;;2.92;;
75847;SDS011;65750;47.540;19.090;2023-03-20T04:02:13;4.95;;;2.95;;
75847;SDS011;65750;47.540;19.090;2023-03-20T04:04:44;5.12;;;2.85;;
75847;SDS011;65750;47.540;19.090;2023-03-20T04:07:13;4.67;;;3.20;;
75847;SDS011;65750;47.540;19.090;2023-03-20T04:09:40;5.45;;;3.10;;
75847;SDS011;65750;47.540;19.090;2023-03-20T04:12:17;5.12;;;3.03;;
75847;SDS011;65750;47.540;19.090;2023-03-20T04:15:00;5.10;;;3.08;;
75847;SDS011;65750;47.540;19.090;2023-03-20T04:17:28;5.62;;;3.00;;
75847;SDS011;65750;47.540;19.090;2023-03-20T04:19:56;4.73;;;3.03;;
75847;SDS011;65750;47.540;19.090;2023-03-20T04:22:23;5.00;;;3.10;;
75847;SDS011;65750;47.540;19.090;2023-03-20T04:24:51;4.43;;;2.80;;
75847;SDS011;65750;47.540;19.090;2023-03-20T04:27:19;5.60;;;3.05;;
75847;SDS011;65750;47.540;19.090;2023-03-20T04:29:47;5.18;;;3.20;;
75847;SDS011;65750;47.540;19.090;2023-03-20T04:32:14;6.27;;;3.30;;
75847;SDS011;65750;47.540;19.090;2023-03-20T04:34:42;5.20;;;3.03;;
75847;SDS011;65750;47.540;19.090;2023-03-20T04:37:10;6.05;;;3.00;;
75847;SDS011;65750;47.540;19.090;2023-03-20T04:39:38;4.50;;;3.08;;
75847;SDS011;65750;47.540;19.090;2023-03-20T04:42:08;5.22;;;3.12;;
75847;SDS011;65750;47.540;19.090;2023-03-20T04:44:37;4.93;;;2.87;;
75847;SDS011;65750;47.540;19.090;2023-03-20T04:47:05;5.60;;;3.45;;
75847;SDS011;65750;47.540;19.090;2023-03-20T04:49:32;4.97;;;3.17;;
75847;SDS011;65750;47.540;19.090;2023-03-20T04:51:59;4.93;;;2.80;;
75847;SDS011;65750;47.540;19.090;2023-03-20T04:54:28;5.37;;;3.20;;
75847;SDS011;65750;47.540;19.090;2023-03-20T04:56:55;4.47;;;2.77;;
75847;SDS011;65750;47.540;19.090;2023-03-20T04:59:22;4.85;;;3.10;;
75847;SDS011;65750;47.540;19.090;2023-03-20T05:01:51;4.78;;;2.95;;
75847;SDS011;65750;47.540;19.090;2023-03-20T05:04:20;5.87;;;3.30;;
75847;SDS011;65750;47.540;19.090;2023-03-20T05:06:47;4.95;;;2.92;;
75847;SDS011;65750;47.540;19.090;2023-03-20T05:09:15;4.93;;;3.10;;
75847;SDS011;65750;47.540;19.090;2023-03-20T05:11:43;4.85;;;2.85;;
75847;SDS011;65750;47.540;19.090;2023-03-20T05:14:10;4.50;;;2.87;;
75847;SDS011;65750;47.540;19.090;2023-03-20T05:16:39;4.95;;;2.83;;
75847;SDS011;65750;47.540;19.090;2023-03-20T05:19:08;4.75;;;3.05;;
75847;SDS011;65750;47.540;19.090;2023-03-20T05:21:36;4.87;;;2.93;;
75847;SDS011;65750;47.540;19.090;2023-03-20T05:24:04;4.68;;;2.97;;
75847;SDS011;65750;47.540;19.090;2023-03-20T05:26:32;5.20;;;3.10;;
75847;SDS011;65750;47.540;19.090;2023-03-20T05:29:00;4.78;;;3.20;;
75847;SDS011;65750;47.540;19.090;2023-03-20T05:31:28;5.40;;;3.28;;
75847;SDS011;65750;47.540;19.090;2023-03-20T05:33:56;5.87;;;3.17;;
75847;SDS011;65750;47.540;19.090;2023-03-20T05:36:24;5.70;;;3.47;;
75847;SDS011;65750;47.540;19.090;2023-03-20T05:38:52;7.25;;;3.50;;
75847;SDS011;65750;47.540;19.090;2023-03-20T05:41:20;5.95;;;3.40;;
75847;SDS011;65750;47.540;19.090;2023-03-20T05:43:47;6.05;;;3.60;;
75847;SDS011;65750;47.540;19.090;2023-03-20T05:46:15;6.80;;;4.10;;
75847;SDS011;65750;47.540;19.090;2023-03-20T05:48:42;6.35;;;3.95;;
75847;SDS011;65750;47.540;19.090;2023-03-20T05:51:10;6.45;;;3.67;;
75847;SDS011;65750;47.540;19.090;2023-03-20T05:53:39;6.25;;;3.95;;
75847;SDS011;65750;47.540;19.090;2023-03-20T05:56:07;9.27;;;4.00;;
75847;SDS011;65750;47.540;19.090;2023-03-20T05:58:36;8.90;;;4.20;;
75847;SDS011;65750;47.540;19.090;2023-03-20T06:01:04;7.28;;;4.45;;
75847;SDS011;65750;47.540;19.090;2023-03-20T06:03:34;7.68;;;4.22;;
75847;SDS011;65750;47.540;19.090;2023-03-20T06:06:01;8.55;;;4.43;;
75847;SDS011;65750;47.540;19.090;2023-03-20T06:08:29;9.63;;;4.10;;
75847;SDS011;65750;47.540;19.090;2023-03-20T06:10:58;8.03;;;4.40;;
75847;SDS011;65750;47.540;19.090;2023-03-20T06:13:26;10.35;;;4.47;;
75847;SDS011;65750;47.540;19.090;2023-03-20T06:15:53;8.02;;;4.32;;
75847;SDS011;65750;47.540;19.090;2023-03-20T06:18:21;8.82;;;4.35;;
75847;SDS011;65750;47.540;19.090;2023-03-20T06:20:51;13.75;;;5.32;;
75847;SDS011;65750;47.540;19.090;2023-03-20T06:23:19;21.30;;;6.97;;
75847;SDS011;65750;47.540;19.090;2023-03-20T06:25:46;23.12;;;6.72;;
75847;SDS011;65750;47.540;19.090;2023-03-20T06:28:15;19.48;;;6.43;;
75847;SDS011;65750;47.540;19.090;2023-03-20T06:30:43;20.23;;;6.15;;
75847;SDS011;65750;47.540;19.090;2023-03-20T06:33:12;24.50;;;6.20;;
75847;SDS011;65750;47.540;19.090;2023-03-20T06:35:41;21.23;;;6.27;;
75847;SDS011;65750;47.540;19.090;2023-03-20T06:38:08;16.65;;;6.10;;
75847;SDS011;65750;47.540;19.090;2023-03-20T06:40:35;17.27;;;6.18;;
75847;SDS011;65750;47.540;19.090;2023-03-20T06:43:03;16.10;;;6.37;;
75847;SDS011;65750;47.540;19.090;2023-03-20T06:45:33;18.15;;;6.68;;
75847;SDS011;65750;47.540;19.090;2023-03-20T06:48:04;17.60;;;6.47;;
75847;SDS011;65750;47.540;19.090;2023-03-20T06:50:32;18.00;;;6.68;;
75847;SDS011;65750;47.540;19.090;2023-03-20T06:52:59;22.45;;;6.35;;
75847;SDS011;65750;47.540;19.090;2023-03-20T06:55:28;16.58;;;6.07;;
75847;SDS011;65750;47.540;19.090;2023-03-20T06:57:56;16.65;;;6.32;;
75847;SDS011;65750;47.540;19.090;2023-03-20T07:00:23;23.63;;;6.30;;
75847;SDS011;65750;47.540;19.090;2023-03-20T07:02:53;14.48;;;5.95;;
75847;SDS011;65750;47.540;19.090;2023-03-20T07:05:20;14.75;;;6.10;;
75847;SDS011;65750;47.540;19.090;2023-03-20T07:07:47;16.48;;;6.03;;
75847;SDS011;65750;47.540;19.090;2023-03-20T07:10:15;19.37;;;6.60;;
75847;SDS011;65750;47.540;19.090;2023-03-20T07:12:45;18.77;;;6.37;;
75847;SDS011;65750;47.540;19.090;2023-03-20T07:15:12;19.23;;;6.97;;
75847;SDS011;65750;47.540;19.090;2023-03-20T07:17:40;18.50;;;6.60;;
75847;SDS011;65750;47.540;19.090;2023-03-20T07:20:09;15.60;;;5.65;;
75847;SDS011;65750;47.540;19.090;2023-03-20T07:22:37;16.50;;;6.35;;
75847;SDS011;65750;47.540;19.090;2023-03-20T07:25:07;17.17;;;6.57;;
75847;SDS011;65750;47.540;19.090;2023-03-20T07:27:35;17.80;;;6.68;;
75847;SDS011;65750;47.540;19.090;2023-03-20T07:30:03;15.77;;;7.00;;
75847;SDS011;65750;47.540;19.090;2023-03-20T07:32:32;12.77;;;5.93;;
75847;SDS011;65750;47.540;19.090;2023-03-20T07:34:59;14.55;;;6.25;;
75847;SDS011;65750;47.540;19.090;2023-03-20T07:37:27;12.60;;;6.17;;
75847;SDS011;65750;47.540;19.090;2023-03-20T07:39:55;13.85;;;6.30;;
75847;SDS011;65750;47.540;19.090;2023-03-20T07:42:22;10.45;;;6.53;;
75847;SDS011;65750;47.540;19.090;2023-03-20T07:44:50;13.75;;;6.50;;
75847;SDS011;65750;47.540;19.090;2023-03-20T07:47:17;12.82;;;5.97;;
75847;SDS011;65750;47.540;19.090;2023-03-20T07:49:44;20.07;;;6.27;;
75847;SDS011;65750;47.540;19.090;2023-03-20T07:52:12;13.82;;;6.57;;
75847;SDS011;65750;47.540;19.090;2023-03-20T07:54:41;14.55;;;6.18;;
75847;SDS011;65750;47.540;19.090;2023-03-20T07:57:08;12.55;;;6.40;;
75847;SDS011;65750;47.540;19.090;2023-03-20T07:59:36;14.70;;;5.82;;
75847;SDS011;65750;47.540;19.090;2023-03-20T08:02:05;16.50;;;6.33;;
75847;SDS011;65750;47.540;19.090;2023-03-20T08:04:33;14.73;;;5.87;;
75847;SDS011;65750;47.540;19.090;2023-03-20T08:07:00;12.50;;;6.20;;
75847;SDS011;65750;47.540;19.090;2023-03-20T08:09:27;14.35;;;6.03;;
75847;SDS011;65750;47.540;19.090;2023-03-20T08:11:59;15.43;;;6.15;;
75847;SDS011;65750;47.540;19.090;2023-03-20T08:14:26;13.43;;;6.03;;
75847;SDS011;65750;47.540;19.090;2023-03-20T08:16:53;13.93;;;5.97;;
75847;SDS011;65750;47.540;19.090;2023-03-20T08:19:20;12.25;;;6.05;;
75847;SDS011;65750;47.540;19.090;2023-03-20T08:21:48;14.15;;;6.12;;
75847;SDS011;65750;47.540;19.090;2023-03-20T08:24:16;13.98;;;6.45;;
75847;SDS011;65750;47.540;19.090;2023-03-20T08:26:43;10.00;;;5.27;;
75847;SDS011;65750;47.540;19.090;2023-03-20T08:29:12;12.68;;;6.03;;
75847;SDS011;65750;47.540;19.090;2023-03-20T08:31:41;13.73;;;5.95;;
75847;SDS011;65750;47.540;19.090;2023-03-20T08:34:09;14.73;;;6.00;;
75847;SDS011;65750;47.540;19.090;2023-03-20T08:36:36;15.20;;;6.10;;
75847;SDS011;65750;47.540;19.090;2023-03-20T08:39:04;10.33;;;5.97;;
75847;SDS011;65750;47.540;19.090;2023-03-20T08:41:32;12.60;;;5.70;;
75847;SDS011;65750;47.540;19.090;2023-03-20T08:43:59;10.95;;;6.12;;
75847;SDS011;65750;47.540;19.090;2023-03-20T08:46:28;11.88;;;5.95;;
75847;SDS011;65750;47.540;19.090;2023-03-20T08:48:56;10.18;;;6.00;;
75847;SDS011;65750;47.540;19.090;2023-03-20T08:51:23;11.43;;;5.93;;
75847;SDS011;65750;47.540;19.090;2023-03-20T08:53:50;9.95;;;5.62;;
75847;SDS011;65750;47.540;19.090;2023-03-20T08:56:18;12.55;;;5.90;;
75847;SDS011;65750;47.540;19.090;2023-03-20T08:58:45;12.40;;;5.62;;
75847;SDS011;65750;47.540;19.090;2023-03-20T09:01:12;11.80;;;5.43;;
75847;SDS011;65750;47.540;19.090;2023-03-20T09:03:42;11.97;;;5.73;;
75847;SDS011;65750;47.540;19.090;2023-03-20T09:06:09;11.38;;;5.97;;
75847;SDS011;65750;47.540;19.090;2023-03-20T09:08:37;13.40;;;5.43;;
75847;SDS011;65750;47.540;19.090;2023-03-20T09:11:07;11.15;;;6.00;;
75847;SDS011;65750;47.540;19.090;2023-03-20T09:13:34;11.35;;;6.15;;
75847;SDS011;65750;47.540;19.090;2023-03-20T09:16:02;11.83;;;6.40;;
75847;SDS011;65750;47.540;19.090;2023-03-20T09:18:29;11.75;;;6.18;;
75847;SDS011;65750;47.540;19.090;2023-03-20T09:20:58;10.02;;;5.40;;
75847;SDS011;65750;47.540;19.090;2023-03-20T09:23:25;9.60;;;5.30;;
75847;SDS011;65750;47.540;19.090;2023-03-20T09:25:53;13.62;;;5.40;;
75847;SDS011;65750;47.540;19.090;2023-03-20T09:28:20;8.47;;;5.23;;
75847;SDS011;65750;47.540;19.090;2023-03-20T09:30:47;9.77;;;5.47;;
75847;SDS011;65750;47.540;19.090;2023-03-20T09:33:15;9.18;;;4.95;;
75847;SDS011;65750;47.540;19.090;2023-03-20T09:35:43;9.02;;;5.43;;
75847;SDS011;65750;47.540;19.090;2023-03-20T09:38:11;7.62;;;4.60;;
75847;SDS011;65750;47.540;19.090;2023-03-20T09:40:44;9.17;;;4.80;;
75847;SDS011;65750;47.540;19.090;2023-03-20T09:43:17;13.13;;;5.03;;
75847;SDS011;65750;47.540;19.090;2023-03-20T09:45:52;7.87;;;4.57;;
75847;SDS011;65750;47.540;19.090;2023-03-20T09:48:26;10.50;;;4.78;;
75847;SDS011;65750;47.540;19.090;2023-03-20T09:50:57;8.00;;;4.40;;
75847;SDS011;65750;47.540;19.090;2023-03-20T09:53:32;8.27;;;4.43;;
75847;SDS011;65750;47.540;19.090;2023-03-20T09:56:02;7.53;;;4.20;;
75847;SDS011;65750;47.540;19.090;2023-03-20T09:58:30;8.00;;;4.35;;
75847;SDS011;65750;47.540;19.090;2023-03-20T10:00:59;6.55;;;3.97;;
75847;SDS011;65750;47.540;19.090;2023-03-20T10:03:28;7.72;;;4.12;;
75847;SDS011;65750;47.540;19.090;2023-03-20T10:06:02;8.03;;;4.40;;
75847;SDS011;65750;47.540;19.090;2023-03-20T10:08:33;7.10;;;4.25;;
75847;SDS011;65750;47.540;19.090;2023-03-20T10:11:04;6.80;;;4.18;;
75847;SDS011;65750;47.540;19.090;2023-03-20T10:13:38;6.72;;;4.18;;
75847;SDS011;65750;47.540;19.090;2023-03-20T10:16:15;7.40;;;4.20;;
75847;SDS011;65750;47.540;19.090;2023-03-20T10:18:48;6.43;;;3.83;;
75847;SDS011;65750;47.540;19.090;2023-03-20T10:21:18;7.97;;;4.20;;
75847;SDS011;65750;47.540;19.090;2023-03-20T10:23:52;7.43;;;4.62;;
75847;SDS011;65750;47.540;19.090;2023-03-20T10:26:23;9.85;;;5.10;;
75847;SDS011;65750;47.540;19.090;2023-03-20T10:28:51;12.68;;;5.57;;
75847;SDS011;65750;47.540;19.090;2023-03-20T10:31:27;9.67;;;5.50;;
75847;SDS011;65750;47.540;19.090;2023-03-20T10:34:14;12.18;;;5.75;;
75847;SDS011;65750;47.540;19.090;2023-03-20T10:36:49;8.65;;;5.40;;
75847;SDS011;65750;47.540;19.090;2023-03-20T10:39:27;9.93;;;5.35;;
75847;SDS011;65750;47.540;19.090;2023-03-20T10:42:02;11.57;;;6.10;;
75847;SDS011;65750;47.540;19.090;2023-03-20T10:44:37;9.00;;;4.93;;
75847;SDS011;65750;47.540;19.090;2023-03-20T10:47:07;9.93;;;5.45;;
75847;SDS011;65750;47.540;19.090;2023-03-20T10:49:37;8.15;;;5.25;;
75847;SDS011;65750;47.540;19.090;2023-03-20T10:52:06;10.10;;;5.12;;
75847;SDS011;65750;47.540;19.090;2023-03-20T10:54:39;11.65;;;5.53;;
75847;SDS011;65750;47.540;19.090;2023-03-20T10:57:09;12.60;;;5.47;;
75847;SDS011;65750;47.540;19.090;2023-03-20T10:59:41;10.43;;;5.47;;
75847;SDS011;65750;47.540;19.090;2023-03-20T11:02:10;9.80;;;5.87;;
75847;SDS011;65750;47.540;19.090;2023-03-20T11:04:38;12.20;;;6.03;;
75847;SDS011;65750;47.540;19.090;2023-03-20T11:07:07;9.95;;;5.65;;
75847;SDS011;65750;47.540;19.090;2023-03-20T11:09:43;9.60;;;5.73;;
75847;SDS011;65750;47.540;19.090;2023-03-20T11:12:13;10.45;;;5.55;;
75847;SDS011;65750;47.540;19.090;2023-03-20T11:14:43;13.18;;;6.25;;
75847;SDS011;65750;47.540;19.090;2023-03-20T11:17:11;8.50;;;5.12;;
75847;SDS011;65750;47.540;19.090;2023-03-20T11:19:39;9.05;;;5.60;;
75847;SDS011;65750;47.540;19.090;2023-03-20T11:22:08;11.80;;;6.07;;
75847;SDS011;65750;47.540;19.090;2023-03-20T11:24:40;12.32;;;6.00;;
75847;SDS011;65750;47.540;19.090;2023-03-20T11:27:11;11.95;;;5.68;;
75847;SDS011;65750;47.540;19.090;2023-03-20T11:29:41;12.60;;;5.87;;
75847;SDS011;65750;47.540;19.090;2023-03-20T11:32:14;10.43;;;5.37;;
75847;SDS011;65750;47.540;19.090;2023-03-20T11:34:45;14.23;;;5.87;;
75847;SDS011;65750;47.540;19.090;2023-03-20T11:37:20;19.12;;;7.32;;
75847;SDS011;65750;47.540;19.090;2023-03-20T11:39:56;10.40;;;6.07;;
75847;SDS011;65750;47.540;19.090;2023-03-20T11:42:25;10.50;;;5.82;;
75847;SDS011;65750;47.540;19.090;2023-03-20T11:44:57;13.13;;;6.35;;
75847;SDS011;65750;47.540;19.090;2023-03-20T11:47:26;12.57;;;6.33;;
75847;SDS011;65750;47.540;19.090;2023-03-20T11:49:54;10.63;;;6.20;;
75847;SDS011;65750;47.540;19.090;2023-03-20T11:52:24;12.20;;;5.72;;
75847;SDS011;65750;47.540;19.090;2023-03-20T11:54:53;9.52;;;6.05;;
75847;SDS011;65750;47.540;19.090;2023-03-20T11:57:28;13.75;;;5.93;;
75847;SDS011;65750;47.540;19.090;2023-03-20T11:59:59;10.30;;;5.93;;
75847;SDS011;65750;47.540;19.090;2023-03-20T12:02:30;9.40;;;5.50;;
75847;SDS011;65750;47.540;19.090;2023-03-20T12:04:58;10.90;;;5.90;;
75847;SDS011;65750;47.540;19.090;2023-03-20T12:07:26;12.50;;;6.15;;
75847;SDS011;65750;47.540;19.090;2023-03-20T12:09:58;10.60;;;5.93;;
75847;SDS011;65750;47.540;19.090;2023-03-20T12:12:33;10.83;;;5.90;;
75847;SDS011;65750;47.540;19.090;2023-03-20T12:15:07;11.05;;;5.82;;
75847;SDS011;65750;47.540;19.090;2023-03-20T12:17:41;13.80;;;5.70;;
75847;SDS011;65750;47.540;19.090;2023-03-20T12:20:23;9.52;;;5.55;;
75847;SDS011;65750;47.540;19.090;2023-03-20T12:22:55;11.02;;;5.85;;
75847;SDS011;65750;47.540;19.090;2023-03-20T12:25:29;9.87;;;5.87;;
75847;SDS011;65750;47.540;19.090;2023-03-20T12:28:03;9.88;;;5.47;;
75847;SDS011;65750;47.540;19.090;2023-03-20T12:30:38;11.02;;;5.97;;
75847;SDS011;65750;47.540;19.090;2023-03-20T12:33:15;10.23;;;6.40;;
75847;SDS011;65750;47.540;19.090;2023-03-20T12:35:45;13.15;;;6.43;;
75847;SDS011;65750;47.540;19.090;2023-03-20T12:38:17;11.40;;;6.20;;
75847;SDS011;65750;47.540;19.090;2023-03-20T12:40:52;10.95;;;6.40;;
75847;SDS011;65750;47.540;19.090;2023-03-20T12:43:23;10.10;;;5.80;;
75847;SDS011;65750;47.540;19.090;2023-03-20T12:45:52;10.70;;;5.80;;
75847;SDS011;65750;47.540;19.090;2023-03-20T12:48:34;7.72;;;5.20;;
75847;SDS011;65750;47.540;19.090;2023-03-20T12:51:07;8.37;;;5.20;;
75847;SDS011;65750;47.540;19.090;2023-03-20T12:53:41;10.48;;;5.20;;
75847;SDS011;65750;47.540;19.090;2023-03-20T12:56:16;9.23;;;5.43;;
75847;SDS011;65750;47.540;19.090;2023-03-20T12:58:49;11.07;;;5.90;;
75847;SDS011;65750;47.540;19.090;2023-03-20T13:01:19;10.05;;;5.05;;
75847;SDS011;65750;47.540;19.090;2023-03-20T13:06:52;8.35;;;4.97;;
75847;SDS011;65750;47.540;19.090;2023-03-20T13:09:36;8.98;;;5.18;;
75847;SDS011;65750;47.540;19.090;2023-03-20T13:12:16;8.88;;;5.30;;
75847;SDS011;65750;47.540;19.090;2023-03-20T13:14:51;7.37;;;4.60;;
75847;SDS011;65750;47.540;19.090;2023-03-20T13:17:23;10.13;;;5.10;;
75847;SDS011;65750;47.540;19.090;2023-03-20T13:19:54;8.43;;;4.62;;
75847;SDS011;65750;47.540;19.090;2023-03-20T13:22:29;6.57;;;4.57;;
75847;SDS011;65750;47.540;19.090;2023-03-20T13:25:00;7.03;;;4.75;;
75847;SDS011;65750;47.540;19.090;2023-03-20T13:27:33;7.75;;;4.37;;
75847;SDS011;65750;47.540;19.090;2023-03-20T13:30:06;9.80;;;5.10;;
75847;SDS011;65750;47.540;19.090;2023-03-20T13:32:41;8.32;;;4.82;;
75847;SDS011;65750;47.540;19.090;2023-03-20T13:35:19;8.93;;;4.47;;
75847;SDS011;65750;47.540;19.090;2023-03-20T13:37:51;8.32;;;4.90;;
75847;SDS011;65750;47.540;19.090;2023-03-20T13:40:21;7.80;;;4.80;;
75847;SDS011;65750;47.540;19.090;2023-03-20T13:42:53;7.87;;;4.77;;
75847;SDS011;65750;47.540;19.090;2023-03-20T13:45:27;7.47;;;4.90;;
75847;SDS011;65750;47.540;19.090;2023-03-20T13:47:57;6.93;;;4.43;;
75847;SDS011;65750;47.540;19.090;2023-03-20T13:50:32;8.00;;;4.95;;
75847;SDS011;65750;47.540;19.090;2023-03-20T13:53:05;8.55;;;4.95;;
75847;SDS011;65750;47.540;19.090;2023-03-20T13:55:40;9.30;;;5.00;;
75847;SDS011;65750;47.540;19.090;2023-03-20T13:58:33;7.53;;;4.68;;
75847;SDS011;65750;47.540;19.090;2023-03-20T14:01:07;8.25;;;5.22;;
75847;SDS011;65750;47.540;19.090;2023-03-20T14:03:39;7.57;;;5.00;;
75847;SDS011;65750;47.540;19.090;2023-03-20T14:09:23;9.37;;;5.30;;
75847;SDS011;65750;47.540;19.090;2023-03-20T14:12:01;7.85;;;4.95;;
75847;SDS011;65750;47.540;19.090;2023-03-20T14:14:38;8.25;;;4.80;;
75847;SDS011;65750;47.540;19.090;2023-03-20T14:17:07;7.78;;;4.80;;
75847;SDS011;65750;47.540;19.090;2023-03-20T14:19:40;7.85;;;4.95;;
75847;SDS011;65750;47.540;19.090;2023-03-20T14:22:08;8.77;;;5.00;;
75847;SDS011;65750;47.540;19.090;2023-03-20T14:24:41;7.15;;;4.70;;
75847;SDS011;65750;47.540;19.090;2023-03-20T14:27:20;8.55;;;4.90;;
75847;SDS011;65750;47.540;19.090;2023-03-20T14:29:49;9.38;;;5.10;;
75847;SDS011;65750;47.540;19.090;2023-03-20T14:32:21;10.82;;;5.45;;
75847;SDS011;65750;47.540;19.090;2023-03-20T14:40:50;9.18;;;5.10;;
75847;SDS011;65750;47.540;19.090;2023-03-20T14:43:22;9.05;;;5.50;;
75847;SDS011;65750;47.540;19.090;2023-03-20T14:46:05;9.63;;;5.28;;
75847;SDS011;65750;47.540;19.090;2023-03-20T14:48:34;9.40;;;4.90;;
75847;SDS011;65750;47.540;19.090;2023-03-20T14:51:14;8.30;;;5.03;;
75847;SDS011;65750;47.540;19.090;2023-03-20T14:53:53;7.97;;;5.18;;
75847;SDS011;65750;47.540;19.090;2023-03-20T14:56:24;7.60;;;5.37;;
75847;SDS011;65750;47.540;19.090;2023-03-20T14:58:58;7.97;;;5.10;;
75847;SDS011;65750;47.540;19.090;2023-03-20T15:01:45;9.83;;;5.47;;
75847;SDS011;65750;47.540;19.090;2023-03-20T15:04:19;8.90;;;4.97;;
75847;SDS011;65750;47.540;19.090;2023-03-20T15:06:54;7.18;;;5.07;;
75847;SDS011;65750;47.540;19.090;2023-03-20T15:09:23;8.48;;;5.28;;